createdAt,value
2019-03-05T00:01:07.721Z,2.00
2019-03-05T00:06:13.490Z,2.10
2019-03-05T00:11:19.282Z,2.40
2019-03-05T00:16:25.102Z,2.10
2019-03-05T00:21:30.801Z,2.57
2019-03-05T00:26:37.091Z,2.30
2019-03-05T00:31:45.759Z,2.10
2019-03-05T00:36:54.421Z,2.47
2019-03-05T00:42:12.252Z,3.00
2019-03-05T00:47:32.732Z,3.30
2019-03-05T00:52:53.344Z,3.90
2019-03-05T00:58:07.822Z,4.33
2019-03-05T01:03:45.510Z,3.67
2019-03-05T01:08:51.215Z,4.03
2019-03-05T01:13:56.960Z,4.77
2019-03-05T01:19:02.823Z,3.83
2019-03-05T01:24:08.599Z,4.57
2019-03-05T01:29:14.367Z,5.10
2019-03-05T01:34:21.725Z,4.57
2019-03-05T01:39:37.865Z,5.17
2019-03-05T01:44:44.498Z,5.77
2019-03-05T01:49:50.239Z,4.67
2019-03-05T01:54:55.939Z,5.27
2019-03-05T02:00:01.647Z,4.87
2019-03-05T02:05:09.932Z,5.17
2019-03-05T02:10:18.811Z,5.73
2019-03-05T02:15:24.695Z,4.10
2019-03-05T02:20:30.452Z,4.90
2019-03-05T02:25:47.860Z,4.77
2019-03-05T02:31:15.681Z,4.63
2019-03-05T02:36:27.152Z,6.00
2019-03-05T02:41:46.214Z,5.93
2019-03-05T02:47:03.809Z,6.03
2019-03-05T02:52:23.948Z,4.37
2019-03-05T02:57:28.389Z,5.03
2019-03-05T03:02:38.591Z,5.27
2019-03-05T03:07:45.556Z,5.53
2019-03-05T03:12:51.559Z,4.73
2019-03-05T03:17:57.263Z,5.33
2019-03-05T03:23:03.073Z,5.27
2019-03-05T03:28:08.859Z,5.07
2019-03-05T03:33:14.629Z,5.37
2019-03-05T03:38:20.341Z,4.90
2019-03-05T03:43:27.254Z,5.23
2019-03-05T03:48:33.028Z,5.63
2019-03-05T03:53:38.858Z,5.40
2019-03-05T03:58:50.934Z,6.40
2019-03-05T04:03:56.618Z,6.53
2019-03-05T04:09:02.383Z,7.37
2019-03-05T04:14:09.643Z,6.73
2019-03-05T04:19:17.028Z,7.67
2019-03-05T04:24:22.884Z,5.90
2019-03-05T04:29:28.569Z,7.07
2019-03-05T04:34:34.360Z,7.20
2019-03-05T04:39:40.003Z,7.30
2019-03-05T04:44:47.312Z,7.53
2019-03-05T04:49:54.663Z,7.43
2019-03-05T04:55:00.423Z,7.47
2019-03-05T05:00:09.097Z,5.97
2019-03-05T05:05:14.846Z,6.80
2019-03-05T05:10:20.537Z,6.27
2019-03-05T05:15:33.815Z,5.90
2019-03-05T05:20:39.526Z,4.97
2019-03-05T05:25:45.274Z,4.63
2019-03-05T05:30:50.994Z,3.47
2019-03-05T05:35:56.670Z,5.30
2019-03-05T05:41:02.397Z,4.77
2019-03-05T05:46:08.117Z,5.43
2019-03-05T05:51:13.908Z,5.17
2019-03-05T05:56:19.668Z,5.80
2019-03-05T06:01:25.374Z,4.90
2019-03-05T06:06:31.136Z,6.00
2019-03-05T06:11:36.974Z,5.47
2019-03-05T06:16:43.143Z,5.60
2019-03-05T06:21:48.905Z,5.00
2019-03-05T06:26:54.732Z,4.60
2019-03-05T06:32:00.745Z,5.37
2019-03-05T06:37:06.471Z,5.27
2019-03-05T06:42:12.299Z,5.07
2019-03-05T06:47:18.011Z,5.20
2019-03-05T06:52:24.736Z,5.40
2019-03-05T06:57:30.540Z,5.07
2019-03-05T07:02:36.339Z,4.73
2019-03-05T07:07:42.101Z,4.67
2019-03-05T07:12:51.028Z,4.87
2019-03-05T07:18:11.754Z,4.07
2019-03-05T07:23:24.264Z,4.37
2019-03-05T07:28:30.061Z,5.17
2019-03-05T07:33:35.756Z,4.23
2019-03-05T07:38:41.643Z,5.00
2019-03-05T07:43:47.403Z,5.13
2019-03-05T07:48:53.247Z,4.93
2019-03-05T07:53:59.071Z,5.20
2019-03-05T07:59:05.163Z,4.53
2019-03-05T08:04:11.021Z,5.17
2019-03-05T08:09:32.300Z,5.90
2019-03-05T08:14:44.137Z,5.10
2019-03-05T08:19:49.907Z,3.83
2019-03-05T08:24:55.919Z,4.53
2019-03-05T08:30:13.469Z,4.00
2019-03-05T08:35:11.486Z,5.03
2019-03-05T08:40:17.360Z,4.10
2019-03-05T08:45:29.190Z,3.97
2019-03-05T08:50:30.781Z,2.93
2019-03-05T08:55:36.640Z,4.60
2019-03-05T09:00:42.532Z,3.13
2019-03-05T09:05:48.317Z,3.80
2019-03-05T09:10:54.611Z,3.70
2019-03-05T09:16:00.293Z,3.03
2019-03-05T09:21:06.027Z,3.83
2019-03-05T09:26:12.933Z,2.97
2019-03-05T09:31:18.701Z,3.10
2019-03-05T09:36:24.408Z,3.03
2019-03-05T09:41:30.380Z,3.27
2019-03-05T09:46:36.215Z,2.90
2019-03-05T09:51:42.987Z,2.30
2019-03-05T09:56:48.777Z,2.30
2019-03-05T10:01:56.082Z,2.27
2019-03-05T10:07:01.844Z,2.10
2019-03-05T10:12:07.571Z,2.60
2019-03-05T10:17:13.465Z,2.40
2019-03-05T10:22:19.858Z,2.67
2019-03-05T10:27:25.733Z,3.67
2019-03-05T10:32:31.817Z,2.20
2019-03-05T10:37:37.820Z,2.50
2019-03-05T10:42:43.654Z,2.13
2019-03-05T10:47:54.305Z,2.13
2019-03-05T10:53:00.099Z,2.43
2019-03-05T10:58:05.781Z,1.97
2019-03-05T11:03:12.455Z,2.17
2019-03-05T11:08:21.238Z,2.03
2019-03-05T11:13:27.065Z,2.10
2019-03-05T11:18:33.117Z,2.00
2019-03-05T11:23:38.922Z,2.23
2019-03-05T11:28:44.677Z,1.93
2019-03-05T11:33:50.580Z,2.13
2019-03-05T11:38:56.396Z,2.10
2019-03-05T11:44:02.190Z,3.10
2019-03-05T11:49:07.926Z,2.13
2019-03-05T11:54:13.677Z,1.80
2019-03-05T11:59:19.447Z,2.40
2019-03-05T12:04:25.216Z,2.30
2019-03-05T12:09:30.980Z,1.80
2019-03-05T12:14:36.810Z,1.70
2019-03-05T12:19:42.684Z,1.80
2019-03-05T12:24:48.527Z,2.07
2019-03-05T12:29:54.349Z,1.40
2019-03-05T12:35:00.289Z,1.60
2019-03-05T12:40:08.991Z,1.77
2019-03-05T12:45:16.876Z,1.60
2019-03-05T12:50:27.568Z,2.00
2019-03-05T12:55:33.334Z,2.13
2019-03-05T13:00:40.829Z,2.90
2019-03-05T13:05:46.707Z,2.67
2019-03-05T13:10:52.481Z,2.37
2019-03-05T13:15:58.264Z,1.73
2019-03-05T13:21:07.805Z,2.33
2019-03-05T13:26:11.830Z,2.40
2019-03-05T13:31:17.623Z,2.10
2019-03-05T13:36:23.331Z,2.90
2019-03-05T13:41:29.104Z,2.50
2019-03-05T13:46:38.955Z,2.27
2019-03-05T13:51:50.808Z,2.23
2019-03-05T13:57:20.297Z,2.30
2019-03-05T14:02:28.667Z,2.40
2019-03-05T14:08:07.829Z,3.80
2019-03-05T14:13:13.618Z,2.33
2019-03-05T14:18:19.428Z,2.10
2019-03-05T14:23:25.174Z,2.10
2019-03-05T14:28:30.882Z,2.17
2019-03-05T14:33:36.745Z,2.60
2019-03-05T14:38:42.523Z,2.53
2019-03-05T14:43:48.336Z,2.23
2019-03-05T14:48:53.975Z,2.43
2019-03-05T14:53:59.919Z,2.30
2019-03-05T14:59:05.705Z,2.60
2019-03-05T15:04:11.480Z,2.57
2019-03-05T15:09:17.360Z,2.20
2019-03-05T15:14:23.108Z,1.93
2019-03-05T15:19:29.007Z,2.03
2019-03-05T15:24:35.996Z,2.00
2019-03-05T15:29:41.774Z,2.40
2019-03-05T15:34:47.637Z,1.80
2019-03-05T15:39:53.404Z,2.03
2019-03-05T15:44:59.175Z,3.00
2019-03-05T15:50:07.401Z,1.90
2019-03-05T15:55:15.038Z,3.17
2019-03-05T16:00:23.836Z,2.30
2019-03-05T16:05:30.152Z,1.60
2019-03-05T16:10:35.830Z,1.80
2019-03-05T16:15:41.846Z,1.67
2019-03-05T16:20:50.374Z,1.90
2019-03-05T16:25:56.180Z,1.83
2019-03-05T16:31:11.369Z,2.07
2019-03-05T16:36:25.365Z,1.70
2019-03-05T16:41:35.297Z,1.93
2019-03-05T16:46:48.257Z,2.90
2019-03-05T16:52:10.663Z,2.57
2019-03-05T16:57:24.032Z,2.73
2019-03-05T17:02:31.757Z,2.93
2019-03-05T17:07:48.378Z,3.13
2019-03-05T17:12:54.103Z,3.13
2019-03-05T17:18:01.233Z,2.57
2019-03-05T17:23:07.108Z,3.30
2019-03-05T17:28:12.859Z,3.37
2019-03-05T17:33:18.615Z,3.10
2019-03-05T17:38:24.494Z,3.70
2019-03-05T17:43:30.674Z,3.70
2019-03-05T17:48:36.498Z,3.33
2019-03-05T17:53:42.253Z,3.73
2019-03-05T17:58:47.948Z,4.40
2019-03-05T18:03:53.798Z,3.17
2019-03-05T18:08:59.481Z,3.50
2019-03-05T18:14:05.852Z,4.17
2019-03-05T18:19:11.791Z,3.40
2019-03-05T18:24:18.036Z,3.70
2019-03-05T18:29:25.495Z,3.87
2019-03-05T18:34:31.140Z,3.10
2019-03-05T18:39:36.859Z,4.17
2019-03-05T18:44:42.638Z,3.97
2019-03-05T18:49:48.233Z,3.50
2019-03-05T18:54:53.971Z,3.00
2019-03-05T18:59:59.623Z,4.13
2019-03-05T19:05:08.035Z,4.17
2019-03-05T19:10:16.308Z,3.90
2019-03-05T19:15:26.773Z,3.97
2019-03-05T19:20:32.984Z,3.60
2019-03-05T19:25:44.459Z,4.13
2019-03-05T19:30:51.798Z,4.07
2019-03-05T19:35:57.543Z,3.63
2019-03-05T19:41:03.375Z,3.90
2019-03-05T19:46:09.107Z,4.00
2019-03-05T19:51:14.750Z,3.63
2019-03-05T19:56:20.373Z,3.73
2019-03-05T20:01:31.846Z,4.33
2019-03-05T20:06:37.694Z,4.10
2019-03-05T20:11:43.552Z,3.73
2019-03-05T20:16:51.167Z,3.37
2019-03-05T20:21:56.791Z,3.47
2019-03-05T20:27:02.401Z,3.60
2019-03-05T20:32:08.182Z,4.23
2019-03-05T20:37:14.008Z,3.93
2019-03-05T20:42:19.986Z,4.00
2019-03-05T20:47:28.246Z,4.47
2019-03-05T20:52:34.156Z,4.20
2019-03-05T20:57:40.229Z,4.43
2019-03-05T21:02:46.056Z,3.87
2019-03-05T21:07:51.922Z,3.87
2019-03-05T21:12:57.674Z,4.60
2019-03-05T21:18:05.536Z,4.60
2019-03-05T21:23:11.265Z,4.17
2019-03-05T21:28:17.042Z,3.93
2019-03-05T21:33:22.878Z,4.07
2019-03-05T21:38:28.575Z,3.73
2019-03-05T21:43:34.370Z,3.57
2019-03-05T21:48:41.543Z,5.10
2019-03-05T21:53:48.439Z,3.30
2019-03-05T21:58:54.137Z,4.90
2019-03-05T22:03:59.795Z,4.10
2019-03-05T22:09:06.908Z,4.50
2019-03-05T22:14:14.099Z,4.00
2019-03-05T22:19:19.798Z,4.40
2019-03-05T22:24:25.603Z,4.00
2019-03-05T22:29:31.262Z,4.20
2019-03-05T22:34:37.031Z,4.13
2019-03-05T22:39:44.006Z,3.97
2019-03-05T22:44:49.658Z,4.40
2019-03-05T22:49:55.315Z,3.80
2019-03-05T22:55:01.062Z,3.90
2019-03-05T23:00:16.033Z,3.93
2019-03-05T23:05:24.237Z,3.10
2019-03-05T23:10:30.253Z,3.27
2019-03-05T23:15:35.028Z,3.37
2019-03-05T23:20:40.801Z,4.33
2019-03-05T23:25:46.491Z,3.17
2019-03-05T23:30:52.256Z,3.37
2019-03-05T23:35:58.852Z,2.80
2019-03-05T23:41:04.545Z,2.97
2019-03-05T23:46:10.355Z,3.13
2019-03-05T23:51:16.025Z,3.57
2019-03-05T23:56:21.642Z,3.47
